Time;durP1;ratioP1;P1;durP2;ratioP2;P2;SDS_P1;SDS_P2;PMS_P1;PMS_P2;Temp;Humidity;BMP_temperature;BMP_pressure;BME280_temperature;BME280_humidity;BME280_pressure;Samples;Min_cycle;Max_cycle;Signal;HPM_P1;HPM_P2
2023/12/02 00:01:38;;;;;;;;;;;;;;;;;;5011073;28;7128;-69
2023/12/02 00:04:04;;;;;;;;;;;;;;;;;;5011234;28;8468;-69
2023/12/02 00:06:29;;;;;;;;;;;;;;;;;;5011007;28;8315;-69
2023/12/02 00:08:54;;;;;;;;;;;;;;;;;;5010972;28;8355;-69
2023/12/02 00:11:20;;;;;;;;;;;;;;;;;;5010311;28;8369;-69
2023/12/02 00:13:46;;;;;;;;;;;;;;;;;;5011306;28;8688;-70
2023/12/02 00:16:12;;;;;;;;;;;;;;;;;;5010896;28;7429;-67
2023/12/02 00:18:37;;;;;;;;;;;;;;;;;;5010877;28;8415;-67
2023/12/02 00:21:03;;;;;;;;;;;;;;;;;;5011019;28;9260;-69
2023/12/02 00:23:28;;;;;;;;;;;;;;;;;;5011252;28;8805;-67
2023/12/02 00:25:54;;;;;;;;;;;;;;;;;;5010925;28;8491;-69
2023/12/02 00:28:20;;;;;;;;;;;;;;;;;;5010918;28;8399;-68
2023/12/02 00:30:46;;;;;;;;;;;;;;;;;;5011002;28;7203;-69
2023/12/02 00:33:12;;;;;;;;;;;;;;;;;;5010922;28;7127;-67
2023/12/02 00:35:38;;;;;;;;;;;;;;;;;;5011267;28;7151;-69
2023/12/02 00:38:04;;;;;;;;;;;;;;;;;;5010821;28;7445;-69
2023/12/02 00:40:29;;;;;;;;;;;;;;;;;;5010578;28;7284;-69
2023/12/02 00:42:55;;;;;;;;;;;;;;;;;;5011977;28;8359;-70
2023/12/02 00:45:20;;;;;;;;;;;;;;;;;;5018762;28;8414;-68
2023/12/02 00:47:46;;;;;;;;;;;;;;;;;;5021200;28;8362;-69
2023/12/02 00:50:11;;;;;;;;;;;;;;;;;;5019044;28;8321;-71
2023/12/02 00:52:37;;;;;;;;;;;;;;;;;;5014200;28;9041;-68
2023/12/02 00:55:02;;;;;;;;;;;;;;;;;;5011274;28;8478;-70
2023/12/02 00:57:28;;;;;;;;;;;;;;;;;;5011525;28;8436;-70
2023/12/02 00:59:53;;;;;;;;;;;;;;;;;;5011388;28;7132;-69
2023/12/02 01:02:19;;;;;;;;;;;;;;;;;;5011146;28;8371;-71
2023/12/02 01:04:44;;;;;;;;;;;;;;;;;;5010888;28;8619;-71
2023/12/02 01:07:09;;;;;;;;;;;;;;;;;;5011160;28;8502;-71
2023/12/02 01:09:35;;;;;;;;;;;;;;;;;;5010718;28;7225;-70
2023/12/02 01:12:01;;;;;;;;;;;;;;;;;;5010996;28;8328;-70
2023/12/02 01:14:27;;;;;;;;;;;;;;;;;;5011206;28;8577;-71
2023/12/02 01:16:53;;;;;;;;;;;;;;;;;;4994454;28;8683;-72
2023/12/02 01:19:19;;;;;;;;;;;;;;;;;;5010953;28;8409;-69
2023/12/02 01:21:45;;;;;;;;;;;;;;;;;;5027712;28;8439;-69
2023/12/02 01:24:10;;;;;;;;;;;;;;;;;;5014308;28;9282;-70
2023/12/02 01:26:36;;;;;;;;;;;;;;;;;;5013636;28;8534;-69
2023/12/02 01:29:01;;;;;;;;;;;;;;;;;;5014122;28;8364;-69
2023/12/02 01:31:27;;;;;;;;;;;;;;;;;;5013931;28;7149;-69
2023/12/02 01:33:52;;;;;;;;;;;;;;;;;;5013677;28;6997;-69
2023/12/02 01:36:18;;;;;;;;;;;;;;;;;;5013657;28;7120;-70
2023/12/02 01:38:43;;;;;;;;;;;;;;;;;;5013721;28;6974;-68
2023/12/02 01:41:09;;;;;;;;;;;;;;;;;;5013858;28;8412;-69
2023/12/02 01:43:37;;;;;;;;;;;;;;;;;;5013971;28;7185;-70
2023/12/02 01:46:03;;;;;;;;;;;;;;;;;;5014011;28;7264;-71
2023/12/02 01:48:33;;;;;;;;;;;;;;;;;;5029688;28;7096;-69
2023/12/02 01:51:00;;;;;;;;;;;;;;;;;;5030131;28;7118;-71
2023/12/02 01:53:26;;;;;;;;;;;;;;;;;;5029784;28;9103;-68
2023/12/02 01:55:52;;;;;;;;;;;;;;;;;;5029876;28;7455;-70
2023/12/02 01:58:19;;;;;;;;;;;;;;;;;;5029877;28;8787;-69
2023/12/02 02:00:44;;;;;;;;;;;;;;;;;;5029698;28;7397;-69
2023/12/02 02:03:10;;;;;;;;;;;;;;;;;;5029577;28;8384;-69
2023/12/02 02:05:35;;;;;;;;;;;;;;;;;;5027307;28;8740;-68
2023/12/02 02:08:01;;;;;;;;;;;;;;;;;;5028583;28;8759;-70
2023/12/02 02:10:26;;;;;;;;;;;;;;;;;;5028226;28;8293;-68
2023/12/02 02:12:52;;;;;;;;;;;;;;;;;;5028596;28;7145;-68
2023/12/02 02:15:18;;;;;;;;;;;;;;;;;;5028492;28;8389;-69
2023/12/02 02:17:44;;;;;;;;;;;;;;;;;;5027827;28;8361;-66
2023/12/02 02:20:10;;;;;;;;;;;;;;;;;;5027110;28;8704;-68
2023/12/02 02:22:35;;;;;;;;;;;;;;;;;;5026991;28;8519;-69
2023/12/02 02:25:01;;;;;;;;;;;;;;;;;;5027020;28;7003;-69
2023/12/02 02:27:27;;;;;;;;;;;;;;;;;;5027091;28;8694;-70
2023/12/02 02:29:52;;;;;;;;;;;;;;;;;;5027375;28;7066;-69
2023/12/02 02:32:18;;;;;;;;;;;;;;;;;;5027509;28;8610;-72
2023/12/02 02:34:44;;;;;;;;;;;;;;;;;;5028135;28;8689;-71
2023/12/02 02:37:09;;;;;;;;;;;;;;;;;;5028900;28;8453;-70
2023/12/02 02:39:35;;;;;;;;;;;;;;;;;;5028208;28;8331;-69
2023/12/02 02:42:06;;;;;;;;;;;;;;;;;;5028290;28;7216;-72
2023/12/02 02:44:38;;;;;;;;;;;;;;;;;;5028137;28;7277;-71
2023/12/02 02:47:04;;;;;;;;;;;;;;;;;;5028204;28;7129;-69
2023/12/02 02:49:30;;;;;;;;;;;;;;;;;;5028288;28;7106;-69
2023/12/02 02:51:55;;;;;;;;;;;;;;;;;;5028336;28;8493;-70
2023/12/02 02:54:21;;;;;;;;;;;;;;;;;;5028088;28;7150;-69
2023/12/02 02:56:46;;;;;;;;;;;;;;;;;;5028502;28;7079;-70
2023/12/02 02:59:12;;;;;;;;;;;;;;;;;;5027900;28;8479;-67
2023/12/02 03:01:39;;;;;;;;;;;;;;;;;;5028258;28;8405;-69
2023/12/02 03:04:04;;;;;;;;;;;;;;;;;;5028279;28;8426;-69
2023/12/02 03:06:30;;;;;;;;;;;;;;;;;;5028193;28;7181;-70
2023/12/02 03:08:55;;;;;;;;;;;;;;;;;;5028272;28;8430;-70
2023/12/02 03:11:21;;;;;;;;;;;;;;;;;;5027880;28;8358;-71
2023/12/02 03:13:47;;;;;;;;;;;;;;;;;;5028491;28;7333;-70
2023/12/02 03:16:12;;;;;;;;;;;;;;;;;;5028299;28;8421;-71
2023/12/02 03:18:38;;;;;;;;;;;;;;;;;;5027875;28;8582;-70
2023/12/02 03:21:03;;;;;;;;;;;;;;;;;;5027791;28;8566;-70
2023/12/02 03:23:29;;;;;;;;;;;;;;;;;;5027960;28;8338;-69
2023/12/02 03:25:55;;;;;;;;;;;;;;;;;;5027624;28;8395;-70
2023/12/02 03:28:22;;;;;;;;;;;;;;;;;;5027875;28;8834;-68
2023/12/02 03:30:48;;;;;;;;;;;;;;;;;;5028027;28;7058;-70
2023/12/02 03:33:13;;;;;;;;;;;;;;;;;;5028071;28;8852;-71
2023/12/02 03:35:39;;;;;;;;;;;;;;;;;;5027608;28;8418;-70
2023/12/02 03:38:04;;;;;;;;;;;;;;;;;;5027732;28;8562;-71
2023/12/02 03:40:30;;;;;;;;;;;;;;;;;;5028084;28;8390;-71
2023/12/02 03:42:55;;;;;;;;;;;;;;;;;;5028265;28;7323;-70
2023/12/02 03:45:21;;;;;;;;;;;;;;;;;;5027946;28;7005;-70
2023/12/02 03:47:47;;;;;;;;;;;;;;;;;;5030815;28;7018;-70
2023/12/02 03:50:13;;;;;;;;;;;;;;;;;;5024350;28;8390;-71
2023/12/02 03:52:39;;;;;;;;;;;;;;;;;;5019576;28;8736;-71
2023/12/02 03:55:04;;;;;;;;;;;;;;;;;;5019871;28;8723;-71
2023/12/02 03:57:30;;;;;;;;;;;;;;;;;;5020015;28;7020;-70
2023/12/02 03:59:55;;;;;;;;;;;;;;;;;;5020136;28;7155;-71
2023/12/02 04:02:21;;;;;;;;;;;;;;;;;;5019046;28;8455;-71
2023/12/02 04:04:46;;;;;;;;;;;;;;;;;;5025586;28;8682;-71
2023/12/02 04:07:12;;;;;;;;;;;;;;;;;;5030918;28;7605;-71
2023/12/02 04:09:39;;;;;;;;;;;;;;;;;;5030830;28;8950;-69
2023/12/02 04:12:04;;;;;;;;;;;;;;;;;;5031118;28;8515;-71
2023/12/02 04:14:30;;;;;;;;;;;;;;;;;;5030686;28;8914;-69
2023/12/02 04:16:55;;;;;;;;;;;;;;;;;;5031243;28;8398;-71
2023/12/02 04:19:22;;;;;;;;;;;;;;;;;;5030720;28;8551;-66
2023/12/02 04:21:48;;;;;;;;;;;;;;;;;;5030860;28;8620;-71
2023/12/02 04:24:13;;;;;;;;;;;;;;;;;;5030693;28;7128;-70
2023/12/02 04:26:39;;;;;;;;;;;;;;;;;;5030291;28;8561;-69
2023/12/02 04:29:04;;;;;;;;;;;;;;;;;;5030751;28;8551;-72
2023/12/02 04:31:30;;;;;;;;;;;;;;;;;;5030497;28;8443;-71
2023/12/02 04:33:56;;;;;;;;;;;;;;;;;;5030705;28;7126;-69
2023/12/02 04:36:22;;;;;;;;;;;;;;;;;;5030659;28;7110;-71
2023/12/02 04:38:47;;;;;;;;;;;;;;;;;;5030532;28;8551;-69
2023/12/02 04:41:12;;;;;;;;;;;;;;;;;;5030493;28;8647;-71
2023/12/02 04:43:38;;;;;;;;;;;;;;;;;;5030176;28;8381;-69
2023/12/02 04:46:05;;;;;;;;;;;;;;;;;;5030087;28;6984;-71
2023/12/02 04:48:31;;;;;;;;;;;;;;;;;;5030090;28;8551;-69
2023/12/02 04:50:56;;;;;;;;;;;;;;;;;;5030144;28;8407;-72
2023/12/02 04:53:21;;;;;;;;;;;;;;;;;;5030152;28;8334;-72
2023/12/02 04:55:47;;;;;;;;;;;;;;;;;;5030454;28;7077;-71
2023/12/02 04:58:13;;;;;;;;;;;;;;;;;;5029551;28;8839;-70
2023/12/02 05:00:39;;;;;;;;;;;;;;;;;;5029859;28;8402;-71
2023/12/02 05:03:05;;;;;;;;;;;;;;;;;;5029722;28;7231;-71
2023/12/02 05:05:32;;;;;;;;;;;;;;;;;;5030045;28;8796;-71
2023/12/02 05:07:58;;;;;;;;;;;;;;;;;;5029817;28;7161;-71
2023/12/02 05:10:23;;;;;;;;;;;;;;;;;;5029655;28;7088;-71
2023/12/02 05:12:49;;;;;;;;;;;;;;;;;;5030210;28;8666;-72
2023/12/02 05:15:14;;;;;;;;;;;;;;;;;;5029823;28;8643;-72
2023/12/02 05:17:40;;;;;;;;;;;;;;;;;;5029895;28;7137;-71
2023/12/02 05:20:06;;;;;;;;;;;;;;;;;;5029580;28;8757;-71
2023/12/02 05:22:31;;;;;;;;;;;;;;;;;;5029500;28;8386;-70
2023/12/02 05:24:57;;;;;;;;;;;;;;;;;;5029790;28;8358;-68
2023/12/02 05:27:22;;;;;;;;;;;;;;;;;;5029426;28;8558;-71
2023/12/02 05:29:48;;;;;;;;;;;;;;;;;;5029305;28;8569;-71
2023/12/02 05:32:14;;;;;;;;;;;;;;;;;;5029668;28;8772;-71
2023/12/02 05:34:39;;;;;;;;;;;;;;;;;;5029488;28;7123;-71
2023/12/02 05:37:05;;;;;;;;;;;;;;;;;;5029262;28;7156;-70
2023/12/02 05:39:30;;;;;;;;;;;;;;;;;;5016491;28;7130;-70
2023/12/02 05:41:55;;;;;;;;;;;;;;;;;;5022819;28;7040;-72
2023/12/02 05:44:21;;;;;;;;;;;;;;;;;;5018331;28;8474;-70
2023/12/02 05:46:46;;;;;;;;;;;;;;;;;;5018121;28;7165;-70
2023/12/02 05:49:12;;;;;;;;;;;;;;;;;;5019836;28;8426;-71
2023/12/02 05:51:40;;;;;;;;;;;;;;;;;;5018528;28;8428;-71
2023/12/02 05:54:09;;;;;;;;;;;;;;;;;;5017738;28;8936;-70
2023/12/02 05:56:35;;;;;;;;;;;;;;;;;;5022365;28;7191;-72
2023/12/02 05:59:00;;;;;;;;;;;;;;;;;;5018770;28;7485;-71
2023/12/02 06:01:26;;;;;;;;;;;;;;;;;;5020622;28;7443;-67
2023/12/02 06:03:51;;;;;;;;;;;;;;;;;;5019953;28;8649;-70
2023/12/02 06:06:17;;;;;;;;;;;;;;;;;;5014410;28;7731;-71
2023/12/02 06:08:43;;;;;;;;;;;;;;;;;;5010041;28;7144;-72
2023/12/02 06:11:08;;;;;;;;;;;;;;;;;;5014941;28;8418;-70
2023/12/02 06:13:34;;;;;;;;;;;;;;;;;;5017421;28;8626;-71
2023/12/02 06:15:59;;;;;;;;;;;;;;;;;;5021497;28;8433;-71
2023/12/02 06:18:25;;;;;;;;;;;;;;;;;;5023283;28;8482;-72
2023/12/02 06:20:50;;;;;;;;;;;;;;;;;;5019639;28;7173;-71
2023/12/02 06:23:16;;;;;;;;;;;;;;;;;;5018187;28;8457;-70
2023/12/02 06:25:41;;;;;;;;;;;;;;;;;;5018650;28;7153;-71
2023/12/02 06:28:07;;;;;;;;;;;;;;;;;;5017133;28;8543;-70
2023/12/02 06:30:33;;;;;;;;;;;;;;;;;;5019831;28;7437;-71
2023/12/02 06:32:59;;;;;;;;;;;;;;;;;;5019862;28;9036;-71
2023/12/02 06:35:25;;;;;;;;;;;;;;;;;;5017751;28;8423;-70
2023/12/02 06:37:50;;;;;;;;;;;;;;;;;;5019922;28;8750;-70
2023/12/02 06:40:15;;;;;;;;;;;;;;;;;;5023923;28;7400;-71
2023/12/02 06:42:41;;;;;;;;;;;;;;;;;;5020392;28;8472;-71
2023/12/02 06:45:06;;;;;;;;;;;;;;;;;;5017909;28;6990;-72
2023/12/02 06:47:32;;;;;;;;;;;;;;;;;;5016651;28;8003;-70
2023/12/02 06:49:58;;;;;;;;;;;;;;;;;;5018773;28;8433;-71
2023/12/02 06:52:24;;;;;;;;;;;;;;;;;;5017624;28;7168;-70
2023/12/02 06:54:49;;;;;;;;;;;;;;;;;;5016914;28;8688;-72
2023/12/02 06:57:15;;;;;;;;;;;;;;;;;;5021730;28;7067;-71
2023/12/02 06:59:43;;;;;;;;;;;;;;;;;;5016861;28;7371;-71
2023/12/02 07:02:09;;;;;;;;;;;;;;;;;;5017594;28;8455;-73
2023/12/02 07:04:34;;;;;;;;;;;;;;;;;;5016486;28;8617;-70
2023/12/02 07:07:00;;;;;;;;;;;;;;;;;;5018575;28;7331;-72
2023/12/02 07:09:25;;;;;;;;;;;;;;;;;;5016876;28;8431;-70
2023/12/02 07:11:50;;;;;;;;;;;;;;;;;;5016747;28;7266;-71
2023/12/02 07:14:16;;;;;;;;;;;;;;;;;;5017957;28;8401;-70
2023/12/02 07:16:41;;;;;;;;;;;;;;;;;;5018369;28;8897;-70
2023/12/02 07:19:07;;;;;;;;;;;;;;;;;;5027862;28;7316;-71
2023/12/02 07:21:33;;;;;;;;;;;;;;;;;;5030648;28;8474;-71
2023/12/02 07:23:59;;;;;;;;;;;;;;;;;;5032087;28;8453;-72
2023/12/02 07:26:24;;;;;;;;;;;;;;;;;;5032420;28;8812;-70
2023/12/02 07:28:50;;;;;;;;;;;;;;;;;;5032548;28;8439;-73
2023/12/02 07:31:16;;;;;;;;;;;;;;;;;;5032528;28;8450;-71
2023/12/02 07:33:42;;;;;;;;;;;;;;;;;;5033253;28;8425;-71
2023/12/02 07:36:09;;;;;;;;;;;;;;;;;;5032487;28;8689;-70
2023/12/02 07:38:35;;;;;;;;;;;;;;;;;;5032379;28;8435;-72
2023/12/02 07:41:01;;;;;;;;;;;;;;;;;;5031780;28;7278;-72
2023/12/02 07:43:26;;;;;;;;;;;;;;;;;;5032139;28;7235;-72
2023/12/02 07:45:52;;;;;;;;;;;;;;;;;;5031923;28;8624;-71
2023/12/02 07:48:17;;;;;;;;;;;;;;;;;;5032198;28;8395;-70
2023/12/02 07:50:43;;;;;;;;;;;;;;;;;;5032670;28;8484;-71
2023/12/02 07:53:08;;;;;;;;;;;;;;;;;;5032308;28;7026;-73
2023/12/02 07:55:34;;;;;;;;;;;;;;;;;;5032379;28;8345;-72
2023/12/02 07:58:01;;;;;;;;;;;;;;;;;;5032145;28;7144;-72
2023/12/02 08:00:27;;;;;;;;;;;;;;;;;;5031793;28;8374;-72
2023/12/02 08:02:52;;;;;;;;;;;;;;;;;;5032289;28;8900;-72
2023/12/02 08:05:17;;;;;;;;;;;;;;;;;;5032306;28;8676;-71
2023/12/02 08:07:43;;;;;;;;;;;;;;;;;;5031422;28;8421;-71
2023/12/02 08:10:10;;;;;;;;;;;;;;;;;;5031031;28;6991;-71
2023/12/02 08:12:36;;;;;;;;;;;;;;;;;;5030878;28;7623;-71
2023/12/02 08:15:02;;;;;;;;;;;;;;;;;;5030895;28;8579;-71
2023/12/02 08:17:28;;;;;;;;;;;;;;;;;;5031114;28;8387;-71
2023/12/02 08:19:53;;;;;;;;;;;;;;;;;;5030798;28;7248;-71
2023/12/02 08:22:24;;;;;;;;;;;;;;;;;;5030925;28;8382;-72
2023/12/02 08:24:53;;;;;;;;;;;;;;;;;;5030734;28;8959;-72
2023/12/02 08:27:19;;;;;;;;;;;;;;;;;;5030516;28;7255;-70
2023/12/02 08:29:45;;;;;;;;;;;;;;;;;;5030942;28;7341;-71
2023/12/02 08:32:10;;;;;;;;;;;;;;;;;;5030218;28;8530;-73
2023/12/02 08:34:36;;;;;;;;;;;;;;;;;;5030937;28;8392;-73
2023/12/02 08:37:01;;;;;;;;;;;;;;;;;;5030606;28;8392;-71
2023/12/02 08:39:27;;;;;;;;;;;;;;;;;;5031055;28;8423;-69
2023/12/02 08:41:53;;;;;;;;;;;;;;;;;;5030382;28;8547;-72
2023/12/02 08:44:19;;;;;;;;;;;;;;;;;;5030233;28;8468;-72
2023/12/02 08:46:44;;;;;;;;;;;;;;;;;;5030573;28;7497;-71
2023/12/02 08:49:10;;;;;;;;;;;;;;;;;;5030154;28;8750;-73
2023/12/02 08:51:35;;;;;;;;;;;;;;;;;;5030478;28;8388;-73
2023/12/02 08:54:01;;;;;;;;;;;;;;;;;;5030720;28;8457;-72
2023/12/02 08:56:28;;;;;;;;;;;;;;;;;;5030270;28;8464;-72
2023/12/02 08:58:54;;;;;;;;;;;;;;;;;;5030270;28;8404;-72
2023/12/02 09:01:20;;;;;;;;;;;;;;;;;;5030191;28;8997;-71
2023/12/02 09:03:46;;;;;;;;;;;;;;;;;;5030146;28;8322;-73
2023/12/02 09:06:11;;;;;;;;;;;;;;;;;;5024042;28;8495;-71
2023/12/02 09:08:37;;;;;;;;;;;;;;;;;;5012652;28;8404;-72
2023/12/02 09:11:04;;;;;;;;;;;;;;;;;;5010396;28;8821;-70
2023/12/02 09:13:32;;;;;;;;;;;;;;;;;;5009841;28;7414;-72
2023/12/02 09:15:58;;;;;;;;;;;;;;;;;;5010035;28;7177;-71
2023/12/02 09:18:28;;;;;;;;;;;;;;;;;;5009693;28;8423;-71
2023/12/02 09:20:55;;;;;;;;;;;;;;;;;;5010133;28;8397;-70
2023/12/02 09:23:21;;;;;;;;;;;;;;;;;;5009780;28;8623;-71
2023/12/02 09:25:49;;;;;;;;;;;;;;;;;;5009964;28;8462;-73
2023/12/02 09:28:17;;;;;;;;;;;;;;;;;;5009489;28;9319;-71
2023/12/02 09:30:51;;;;;;;;;;;;;;;;;;5009929;28;7160;-70
2023/12/02 09:33:17;;;;;;;;;;;;;;;;;;5009982;28;7168;-71
2023/12/02 09:35:43;;;;;;;;;;;;;;;;;;5009701;28;8411;-71
2023/12/02 09:38:08;;;;;;;;;;;;;;;;;;5009517;28;8456;-71
2023/12/02 09:40:34;;;;;;;;;;;;;;;;;;5008676;28;8390;-72
2023/12/02 09:43:18;;;;;;;;;;;;;;;;;;5008592;28;8403;-71
2023/12/02 09:45:59;;;;;;;;;;;;;;;;;;5009131;28;8437;-71
2023/12/02 09:48:25;;;;;;;;;;;;;;;;;;5009194;28;8616;-70
2023/12/02 09:50:53;;;;;;;;;;;;;;;;;;5008759;28;7397;-71
2023/12/02 09:53:33;;;;;;;;;;;;;;;;;;5008245;28;9403;-71
2023/12/02 09:56:03;;;;;;;;;;;;;;;;;;5009265;28;8427;-73
2023/12/02 09:58:38;;;;;;;;;;;;;;;;;;5009467;28;8932;-71
2023/12/02 10:01:13;;;;;;;;;;;;;;;;;;5009167;28;8397;-71
2023/12/02 10:03:45;;;;;;;;;;;;;;;;;;5009132;28;7254;-72
2023/12/02 10:06:14;;;;;;;;;;;;;;;;;;5008879;28;8406;-71
2023/12/02 10:08:57;;;;;;;;;;;;;;;;;;5009249;28;8422;-70
2023/12/02 10:11:43;;;;;;;;;;;;;;;;;;5009271;28;8463;-72
2023/12/02 10:14:11;;;;;;;;;;;;;;;;;;5008623;28;7100;-72
2023/12/02 10:16:38;;;;;;;;;;;;;;;;;;5010222;28;8441;-68
2023/12/02 10:19:05;;;;;;;;;;;;;;;;;;5010814;28;7165;-70
2023/12/02 10:21:33;;;;;;;;;;;;;;;;;;5026829;28;7180;-70
2023/12/02 10:24:10;;;;;;;;;;;;;;;;;;5028066;28;8858;-71
2023/12/02 10:26:51;;;;;;;;;;;;;;;;;;5027753;28;7269;-72
2023/12/02 10:29:36;;;;;;;;;;;;;;;;;;5015140;28;8421;-71
2023/12/02 10:32:12;;;;;;;;;;;;;;;;;;4988931;28;8450;-72
2023/12/02 10:34:59;;;;;;;;;;;;;;;;;;5028056;28;7431;-72
2023/12/02 10:37:35;;;;;;;;;;;;;;;;;;5027310;28;8956;-72
2023/12/02 10:40:07;;;;;;;;;;;;;;;;;;5027863;28;8508;-72
2023/12/02 10:42:40;;;;;;;;;;;;;;;;;;5028864;28;7249;-71
2023/12/02 10:45:08;;;;;;;;;;;;;;;;;;5027790;28;8390;-72
2023/12/02 10:47:34;;;;;;;;;;;;;;;;;;5028160;28;8649;-73
2023/12/02 10:50:00;;;;;;;;;;;;;;;;;;5027670;28;8331;-71
2023/12/02 10:52:28;;;;;;;;;;;;;;;;;;5028375;28;8413;-71
2023/12/02 10:54:58;;;;;;;;;;;;;;;;;;5027728;28;8496;-72
2023/12/02 10:57:26;;;;;;;;;;;;;;;;;;5032562;28;7230;-73
2023/12/02 10:59:57;;;;;;;;;;;;;;;;;;5032061;28;7251;-70
2023/12/02 11:02:26;;;;;;;;;;;;;;;;;;5015560;28;8422;-72
2023/12/02 11:05:02;;;;;;;;;;;;;;;;;;5032049;28;8768;-72
2023/12/02 11:07:34;;;;;;;;;;;;;;;;;;5032459;28;7204;-70
2023/12/02 11:10:03;;;;;;;;;;;;;;;;;;5032510;28;8471;-70
2023/12/02 11:12:40;;;;;;;;;;;;;;;;;;5032148;28;8789;-71
2023/12/02 11:15:10;;;;;;;;;;;;;;;;;;5031565;28;8720;-72
2023/12/02 11:17:48;;;;;;;;;;;;;;;;;;5031851;28;8430;-72
2023/12/02 11:20:31;;;;;;;;;;;;;;;;;;5032001;28;7052;-72
2023/12/02 11:22:56;;;;;;;;;;;;;;;;;;5031837;28;8609;-72
2023/12/02 11:25:28;;;;;;;;;;;;;;;;;;5015295;28;7175;-72
2023/12/02 11:28:13;;;;;;;;;;;;;;;;;;5032090;28;6797;-71
2023/12/02 11:30:39;;;;;;;;;;;;;;;;;;5014915;28;6817;-72
2023/12/02 11:33:23;;;;;;;;;;;;;;;;;;5015257;28;8701;-71
2023/12/02 11:35:49;;;;;;;;;;;;;;;;;;5015028;28;7027;-71
2023/12/02 11:38:19;;;;;;;;;;;;;;;;;;5014979;28;7155;-71
2023/12/02 11:41:04;;;;;;;;;;;;;;;;;;5031481;28;8703;-70
2023/12/02 11:43:43;;;;;;;;;;;;;;;;;;5015051;28;8598;-72
2023/12/02 11:46:14;;;;;;;;;;;;;;;;;;5031307;28;8455;-72
2023/12/02 11:48:43;;;;;;;;;;;;;;;;;;5031572;28;7113;-72
2023/12/02 11:51:11;;;;;;;;;;;;;;;;;;5014681;28;8439;-72
2023/12/02 11:53:37;;;;;;;;;;;;;;;;;;5014749;28;8424;-71
2023/12/02 11:56:08;;;;;;;;;;;;;;;;;;5015019;28;8696;-72
2023/12/02 11:58:34;;;;;;;;;;;;;;;;;;5031390;28;8391;-72
2023/12/02 12:01:09;;;;;;;;;;;;;;;;;;5014864;28;8478;-71
2023/12/02 12:03:50;;;;;;;;;;;;;;;;;;5014431;28;8322;-72
2023/12/02 12:06:25;;;;;;;;;;;;;;;;;;5014233;28;8748;-71
2023/12/02 12:09:00;;;;;;;;;;;;;;;;;;5030524;28;8445;-72
2023/12/02 12:11:28;;;;;;;;;;;;;;;;;;5014557;28;8504;-72
2023/12/02 12:13:56;;;;;;;;;;;;;;;;;;5030709;28;7804;-72
2023/12/02 12:16:21;;;;;;;;;;;;;;;;;;5030931;28;7171;-73
2023/12/02 12:18:47;;;;;;;;;;;;;;;;;;5030932;28;8359;-71
2023/12/02 12:21:13;;;;;;;;;;;;;;;;;;5030968;28;8269;-72
2023/12/02 12:23:38;;;;;;;;;;;;;;;;;;5030799;28;6891;-72
2023/12/02 12:26:05;;;;;;;;;;;;;;;;;;5030409;28;7302;-70
2023/12/02 12:28:32;;;;;;;;;;;;;;;;;;5030555;28;8409;-71
2023/12/02 12:30:57;;;;;;;;;;;;;;;;;;5030791;28;8751;-72
2023/12/02 12:33:23;;;;;;;;;;;;;;;;;;5030567;28;8408;-74
2023/12/02 12:35:49;;;;;;;;;;;;;;;;;;5030494;28;8391;-72
2023/12/02 12:38:15;;;;;;;;;;;;;;;;;;5030359;28;8404;-70
2023/12/02 12:40:42;;;;;;;;;;;;;;;;;;5030184;28;8681;-72
2023/12/02 12:43:08;;;;;;;;;;;;;;;;;;5030006;28;8531;-70
2023/12/02 12:45:34;;;;;;;;;;;;;;;;;;5030416;28;7161;-72
2023/12/02 12:48:01;;;;;;;;;;;;;;;;;;5030516;28;7041;-71
2023/12/02 12:50:30;;;;;;;;;;;;;;;;;;5030444;28;9144;-72
2023/12/02 12:53:01;;;;;;;;;;;;;;;;;;5029999;28;9055;-70
2023/12/02 12:55:31;;;;;;;;;;;;;;;;;;5030312;28;8753;-72
2023/12/02 12:58:06;;;;;;;;;;;;;;;;;;5030394;28;9115;-73
2023/12/02 13:00:35;;;;;;;;;;;;;;;;;;5030593;28;8861;-72
2023/12/02 13:03:12;;;;;;;;;;;;;;;;;;5030093;28;8362;-72
2023/12/02 13:05:40;;;;;;;;;;;;;;;;;;5013708;28;8572;-72
2023/12/02 13:08:05;;;;;;;;;;;;;;;;;;5029758;28;7045;-71
2023/12/02 13:10:33;;;;;;;;;;;;;;;;;;5013560;28;8407;-71
2023/12/02 13:13:01;;;;;;;;;;;;;;;;;;5030208;28;8378;-72
2023/12/02 13:15:28;;;;;;;;;;;;;;;;;;5029529;28;8467;-72
2023/12/02 13:17:54;;;;;;;;;;;;;;;;;;5029528;28;8491;-71
2023/12/02 13:20:22;;;;;;;;;;;;;;;;;;5029784;28;8474;-71
2023/12/02 13:22:51;;;;;;;;;;;;;;;;;;5030000;28;8442;-72
2023/12/02 13:25:19;;;;;;;;;;;;;;;;;;5029379;28;8492;-71
2023/12/02 13:27:44;;;;;;;;;;;;;;;;;;5029822;28;8418;-71
2023/12/02 13:30:10;;;;;;;;;;;;;;;;;;5012448;28;7319;-73
2023/12/02 13:32:41;;;;;;;;;;;;;;;;;;5029311;28;8513;-72
2023/12/02 13:35:11;;;;;;;;;;;;;;;;;;5029410;28;7244;-72
2023/12/02 13:37:39;;;;;;;;;;;;;;;;;;5029273;28;9503;-72
2023/12/02 13:40:05;;;;;;;;;;;;;;;;;;5012655;28;8407;-72
2023/12/02 13:42:36;;;;;;;;;;;;;;;;;;5029427;28;8752;-72
2023/12/02 13:45:06;;;;;;;;;;;;;;;;;;5029090;28;8541;-72
2023/12/02 13:47:42;;;;;;;;;;;;;;;;;;5029096;28;8903;-71
2023/12/02 13:50:11;;;;;;;;;;;;;;;;;;5029130;28;8431;-72
2023/12/02 13:52:43;;;;;;;;;;;;;;;;;;5029011;28;7185;-74
2023/12/02 13:55:08;;;;;;;;;;;;;;;;;;5012310;28;8768;-72
2023/12/02 13:57:34;;;;;;;;;;;;;;;;;;5012469;28;8474;-72
2023/12/02 14:00:10;;;;;;;;;;;;;;;;;;5012261;28;8474;-72
2023/12/02 14:02:45;;;;;;;;;;;;;;;;;;5028264;28;9118;-70
2023/12/02 14:05:14;;;;;;;;;;;;;;;;;;5011104;28;7149;-72
2023/12/02 14:07:39;;;;;;;;;;;;;;;;;;5027080;28;7202;-71
2023/12/02 14:10:09;;;;;;;;;;;;;;;;;;5011205;28;7057;-72
2023/12/02 14:12:34;;;;;;;;;;;;;;;;;;5027508;28;8680;-74
2023/12/02 14:15:23;;;;;;;;;;;;;;;;;;5010785;28;7413;-72
2023/12/02 14:18:05;;;;;;;;;;;;;;;;;;4990938;28;7274;-72
2023/12/02 14:20:37;;;;;;;;;;;;;;;;;;5028502;28;9216;-73
2023/12/02 14:23:41;;;;;;;;;;;;;;;;;;5012458;28;9118;-72
2023/12/02 14:26:21;;;;;;;;;;;;;;;;;;4952339;28;8957;-72
2023/12/02 14:28:59;;;;;;;;;;;;;;;;;;4936541;28;8428;-72
2023/12/02 14:31:41;;;;;;;;;;;;;;;;;;4936211;28;7058;-71
2023/12/02 14:34:25;;;;;;;;;;;;;;;;;;4952389;28;8336;-73
2023/12/02 14:37:20;;;;;;;;;;;;;;;;;;4936573;28;7377;-74
2023/12/02 14:40:03;;;;;;;;;;;;;;;;;;4902368;28;9014;-72
2023/12/02 14:42:51;;;;;;;;;;;;;;;;;;4936678;28;8723;-73
2023/12/02 14:45:17;;;;;;;;;;;;;;;;;;4952424;28;7097;-72
2023/12/02 14:47:44;;;;;;;;;;;;;;;;;;4952557;29;8845;-73
2023/12/02 14:50:10;;;;;;;;;;;;;;;;;;4952245;29;8434;-73
2023/12/02 14:52:41;;;;;;;;;;;;;;;;;;4952088;29;7139;-73
2023/12/02 14:55:09;;;;;;;;;;;;;;;;;;4952110;29;6979;-72
2023/12/02 14:57:35;;;;;;;;;;;;;;;;;;4979618;28;8751;-72
2023/12/02 15:00:10;;;;;;;;;;;;;;;;;;4992207;28;8598;-72
2023/12/02 15:03:02;;;;;;;;;;;;;;;;;;4992577;28;7041;-72
2023/12/02 15:05:29;;;;;;;;;;;;;;;;;;4988995;28;7040;-69
2023/12/02 15:07:58;;;;;;;;;;;;;;;;;;4991810;28;9091;-71
2023/12/02 15:10:24;;;;;;;;;;;;;;;;;;4992418;28;7123;-70
2023/12/02 15:12:50;;;;;;;;;;;;;;;;;;4992206;28;7409;-72
2023/12/02 15:15:48;;;;;;;;;;;;;;;;;;4991867;28;7623;-71
2023/12/02 15:18:19;;;;;;;;;;;;;;;;;;4959575;28;8430;-71
2023/12/02 15:20:49;;;;;;;;;;;;;;;;;;4992203;28;8708;-71
2023/12/02 15:23:17;;;;;;;;;;;;;;;;;;4991908;28;9444;-72
2023/12/02 15:25:45;;;;;;;;;;;;;;;;;;5007896;28;8571;-71
2023/12/02 15:28:20;;;;;;;;;;;;;;;;;;4991723;28;8414;-72
2023/12/02 15:30:45;;;;;;;;;;;;;;;;;;5008326;28;8399;-69
2023/12/02 15:33:21;;;;;;;;;;;;;;;;;;4991705;28;8391;-71
2023/12/02 15:35:49;;;;;;;;;;;;;;;;;;4992011;28;7148;-72
2023/12/02 15:38:15;;;;;;;;;;;;;;;;;;4991686;28;7217;-71
2023/12/02 15:40:40;;;;;;;;;;;;;;;;;;4991575;28;8367;-71
2023/12/02 15:43:07;;;;;;;;;;;;;;;;;;4995181;28;8394;-71
2023/12/02 15:45:33;;;;;;;;;;;;;;;;;;4995302;28;8786;-70
2023/12/02 15:47:58;;;;;;;;;;;;;;;;;;4994959;28;8439;-71
2023/12/02 15:50:24;;;;;;;;;;;;;;;;;;4995109;28;7141;-71
2023/12/02 15:52:50;;;;;;;;;;;;;;;;;;4994804;28;7122;-71
2023/12/02 15:55:18;;;;;;;;;;;;;;;;;;4994872;28;7227;-68
2023/12/02 15:57:45;;;;;;;;;;;;;;;;;;4994708;28;9432;-72
2023/12/02 16:00:12;;;;;;;;;;;;;;;;;;4995107;28;8767;-72
2023/12/02 16:02:42;;;;;;;;;;;;;;;;;;4994882;28;8557;-72
2023/12/02 16:05:12;;;;;;;;;;;;;;;;;;4994788;28;8880;-71
2023/12/02 16:07:37;;;;;;;;;;;;;;;;;;4995112;28;8627;-66
2023/12/02 16:10:03;;;;;;;;;;;;;;;;;;4994933;28;8419;-72
2023/12/02 16:12:29;;;;;;;;;;;;;;;;;;4995102;28;7135;-71
2023/12/02 16:14:54;;;;;;;;;;;;;;;;;;4994796;28;7135;-72
2023/12/02 16:17:20;;;;;;;;;;;;;;;;;;4994804;28;6963;-71
2023/12/02 16:19:48;;;;;;;;;;;;;;;;;;4994480;28;7012;-71
2023/12/02 16:22:16;;;;;;;;;;;;;;;;;;4994631;28;7164;-71
2023/12/02 16:24:42;;;;;;;;;;;;;;;;;;4994794;28;7162;-69
2023/12/02 16:27:08;;;;;;;;;;;;;;;;;;4994535;28;8411;-72
2023/12/02 16:29:33;;;;;;;;;;;;;;;;;;4994402;28;8350;-73
2023/12/02 16:32:00;;;;;;;;;;;;;;;;;;4994648;28;8386;-72
2023/12/02 16:34:26;;;;;;;;;;;;;;;;;;4994547;28;8758;-72
2023/12/02 16:36:52;;;;;;;;;;;;;;;;;;4996537;28;8419;-71
2023/12/02 16:39:17;;;;;;;;;;;;;;;;;;5029455;28;8421;-72
2023/12/02 16:41:43;;;;;;;;;;;;;;;;;;5030084;28;8589;-72
2023/12/02 16:44:09;;;;;;;;;;;;;;;;;;5030008;28;7159;-72
2023/12/02 16:46:36;;;;;;;;;;;;;;;;;;5032459;28;8535;-70
2023/12/02 16:49:02;;;;;;;;;;;;;;;;;;5009561;28;8814;-71
2023/12/02 16:51:28;;;;;;;;;;;;;;;;;;5010445;28;7102;-71
2023/12/02 16:53:55;;;;;;;;;;;;;;;;;;5027965;28;8396;-70
2023/12/02 16:56:32;;;;;;;;;;;;;;;;;;5029767;28;7273;-71
2023/12/02 16:58:58;;;;;;;;;;;;;;;;;;5029643;28;7234;-69
2023/12/02 17:01:26;;;;;;;;;;;;;;;;;;5030083;28;8414;-71
2023/12/02 17:03:53;;;;;;;;;;;;;;;;;;5029595;28;8380;-72
2023/12/02 17:06:18;;;;;;;;;;;;;;;;;;5029805;28;7142;-70
2023/12/02 17:08:45;;;;;;;;;;;;;;;;;;5029655;28;6951;-69